sensor_id;sensor_type;location;lat;lon;timestamp;P1;durP1;ratioP1;P2;durP2;ratioP2
43809;SDS011;29440;48.208;11.162;2024-02-16T00:01:18;7.85;;;5.07;;
43809;SDS011;29440;48.208;11.162;2024-02-16T00:03:43;8.38;;;5.22;;
43809;SDS011;29440;48.208;11.162;2024-02-16T00:06:09;11.13;;;5.47;;
43809;SDS011;29440;48.208;11.162;2024-02-16T00:08:35;8.57;;;5.55;;
43809;SDS011;29440;48.208;11.162;2024-02-16T00:11:03;9.85;;;5.07;;
43809;SDS011;29440;48.208;11.162;2024-02-16T00:13:29;8.15;;;4.93;;
43809;SDS011;29440;48.208;11.162;2024-02-16T00:15:55;13.68;;;5.68;;
43809;SDS011;29440;48.208;11.162;2024-02-16T00:18:20;10.13;;;5.22;;
43809;SDS011;29440;48.208;11.162;2024-02-16T00:20:46;10.35;;;4.78;;
43809;SDS011;29440;48.208;11.162;2024-02-16T00:23:11;9.02;;;4.10;;
43809;SDS011;29440;48.208;11.162;2024-02-16T00:25:37;6.93;;;4.43;;
43809;SDS011;29440;48.208;11.162;2024-02-16T00:28:04;6.10;;;3.83;;
43809;SDS011;29440;48.208;11.162;2024-02-16T00:30:30;6.90;;;3.53;;
43809;SDS011;29440;48.208;11.162;2024-02-16T00:32:56;6.85;;;4.22;;
43809;SDS011;29440;48.208;11.162;2024-02-16T00:35:21;6.05;;;3.67;;
43809;SDS011;29440;48.208;11.162;2024-02-16T00:37:47;6.22;;;3.63;;
43809;SDS011;29440;48.208;11.162;2024-02-16T00:40:13;4.78;;;3.20;;
43809;SDS011;29440;48.208;11.162;2024-02-16T00:42:38;4.95;;;3.10;;
43809;SDS011;29440;48.208;11.162;2024-02-16T00:45:04;5.38;;;3.28;;
43809;SDS011;29440;48.208;11.162;2024-02-16T00:47:30;6.55;;;2.72;;
43809;SDS011;29440;48.208;11.162;2024-02-16T00:49:55;4.38;;;3.22;;
43809;SDS011;29440;48.208;11.162;2024-02-16T00:52:22;6.43;;;3.33;;
43809;SDS011;29440;48.208;11.162;2024-02-16T00:54:48;7.20;;;3.95;;
43809;SDS011;29440;48.208;11.162;2024-02-16T00:57:14;7.47;;;4.70;;
43809;SDS011;29440;48.208;11.162;2024-02-16T00:59:40;7.57;;;3.97;;
43809;SDS011;29440;48.208;11.162;2024-02-16T01:02:06;6.60;;;4.35;;
43809;SDS011;29440;48.208;11.162;2024-02-16T01:04:32;5.95;;;3.72;;
43809;SDS011;29440;48.208;11.162;2024-02-16T01:06:58;10.35;;;3.72;;
43809;SDS011;29440;48.208;11.162;2024-02-16T01:09:24;6.25;;;3.97;;
43809;SDS011;29440;48.208;11.162;2024-02-16T01:11:49;8.80;;;3.83;;
43809;SDS011;29440;48.208;11.162;2024-02-16T01:14:15;11.65;;;4.22;;
43809;SDS011;29440;48.208;11.162;2024-02-16T01:16:41;6.35;;;3.85;;
43809;SDS011;29440;48.208;11.162;2024-02-16T01:19:06;7.28;;;3.45;;
43809;SDS011;29440;48.208;11.162;2024-02-16T01:21:32;7.53;;;3.35;;
43809;SDS011;29440;48.208;11.162;2024-02-16T01:23:58;6.30;;;3.30;;
43809;SDS011;29440;48.208;11.162;2024-02-16T01:26:27;5.70;;;2.92;;
43809;SDS011;29440;48.208;11.162;2024-02-16T01:28:53;6.00;;;3.95;;
43809;SDS011;29440;48.208;11.162;2024-02-16T01:31:18;6.10;;;3.15;;
43809;SDS011;29440;48.208;11.162;2024-02-16T01:33:44;7.22;;;3.10;;
43809;SDS011;29440;48.208;11.162;2024-02-16T01:36:09;6.43;;;3.45;;
43809;SDS011;29440;48.208;11.162;2024-02-16T01:38:35;6.07;;;3.42;;
43809;SDS011;29440;48.208;11.162;2024-02-16T01:41:01;6.53;;;3.58;;
43809;SDS011;29440;48.208;11.162;2024-02-16T01:43:27;5.95;;;3.80;;
43809;SDS011;29440;48.208;11.162;2024-02-16T01:45:52;6.78;;;3.90;;
43809;SDS011;29440;48.208;11.162;2024-02-16T01:48:18;6.68;;;3.58;;
43809;SDS011;29440;48.208;11.162;2024-02-16T01:50:44;7.88;;;4.15;;
43809;SDS011;29440;48.208;11.162;2024-02-16T01:53:11;6.80;;;3.60;;
43809;SDS011;29440;48.208;11.162;2024-02-16T01:55:38;6.25;;;3.90;;
43809;SDS011;29440;48.208;11.162;2024-02-16T01:58:03;5.63;;;3.80;;
43809;SDS011;29440;48.208;11.162;2024-02-16T02:00:29;5.65;;;3.47;;
43809;SDS011;29440;48.208;11.162;2024-02-16T02:02:55;5.35;;;3.38;;
43809;SDS011;29440;48.208;11.162;2024-02-16T02:05:22;6.80;;;3.78;;
43809;SDS011;29440;48.208;11.162;2024-02-16T02:07:48;6.90;;;3.35;;
43809;SDS011;29440;48.208;11.162;2024-02-16T02:10:14;7.03;;;3.70;;
43809;SDS011;29440;48.208;11.162;2024-02-16T02:12:39;5.00;;;3.70;;
43809;SDS011;29440;48.208;11.162;2024-02-16T02:15:07;5.45;;;3.70;;
43809;SDS011;29440;48.208;11.162;2024-02-16T02:17:33;5.63;;;3.88;;
43809;SDS011;29440;48.208;11.162;2024-02-16T02:19:59;7.68;;;4.07;;
43809;SDS011;29440;48.208;11.162;2024-02-16T02:35:54;5.70;;;3.45;;
43809;SDS011;29440;48.208;11.162;2024-02-16T02:38:19;7.40;;;3.50;;
43809;SDS011;29440;48.208;11.162;2024-02-16T02:40:45;7.15;;;4.40;;
43809;SDS011;29440;48.208;11.162;2024-02-16T02:43:10;6.03;;;4.18;;
43809;SDS011;29440;48.208;11.162;2024-02-16T02:45:36;5.82;;;3.95;;
43809;SDS011;29440;48.208;11.162;2024-02-16T02:48:01;5.55;;;4.07;;
43809;SDS011;29440;48.208;11.162;2024-02-16T02:50:27;7.60;;;3.75;;
43809;SDS011;29440;48.208;11.162;2024-02-16T02:52:53;7.60;;;4.13;;
43809;SDS011;29440;48.208;11.162;2024-02-16T02:55:18;6.63;;;4.40;;
43809;SDS011;29440;48.208;11.162;2024-02-16T02:57:44;7.00;;;3.40;;
43809;SDS011;29440;48.208;11.162;2024-02-16T03:00:09;6.28;;;3.95;;
43809;SDS011;29440;48.208;11.162;2024-02-16T03:02:39;5.03;;;3.38;;
43809;SDS011;29440;48.208;11.162;2024-02-16T03:05:05;7.35;;;3.88;;
43809;SDS011;29440;48.208;11.162;2024-02-16T03:07:35;6.03;;;4.18;;
43809;SDS011;29440;48.208;11.162;2024-02-16T03:10:01;7.57;;;3.78;;
43809;SDS011;29440;48.208;11.162;2024-02-16T03:12:28;6.90;;;4.03;;
43809;SDS011;29440;48.208;11.162;2024-02-16T03:14:53;7.43;;;3.90;;
43809;SDS011;29440;48.208;11.162;2024-02-16T03:17:19;5.80;;;3.78;;
43809;SDS011;29440;48.208;11.162;2024-02-16T03:19:44;10.57;;;3.58;;
43809;SDS011;29440;48.208;11.162;2024-02-16T03:22:10;5.85;;;4.00;;
43809;SDS011;29440;48.208;11.162;2024-02-16T03:24:35;5.25;;;3.95;;
43809;SDS011;29440;48.208;11.162;2024-02-16T03:27:01;7.72;;;3.88;;
43809;SDS011;29440;48.208;11.162;2024-02-16T03:29:27;6.72;;;4.32;;
43809;SDS011;29440;48.208;11.162;2024-02-16T03:31:53;6.78;;;4.53;;
43809;SDS011;29440;48.208;11.162;2024-02-16T03:34:18;6.57;;;3.92;;
43809;SDS011;29440;48.208;11.162;2024-02-16T03:36:44;7.93;;;3.85;;
43809;SDS011;29440;48.208;11.162;2024-02-16T03:39:09;6.40;;;4.18;;
43809;SDS011;29440;48.208;11.162;2024-02-16T03:41:35;13.85;;;4.72;;
43809;SDS011;29440;48.208;11.162;2024-02-16T03:44:00;7.05;;;4.40;;
43809;SDS011;29440;48.208;11.162;2024-02-16T03:46:26;8.02;;;4.53;;
43809;SDS011;29440;48.208;11.162;2024-02-16T03:48:52;6.20;;;4.40;;
43809;SDS011;29440;48.208;11.162;2024-02-16T03:51:17;8.88;;;4.55;;
43809;SDS011;29440;48.208;11.162;2024-02-16T03:53:43;6.97;;;4.70;;
43809;SDS011;29440;48.208;11.162;2024-02-16T03:56:11;7.13;;;3.97;;
43809;SDS011;29440;48.208;11.162;2024-02-16T03:58:42;5.97;;;3.72;;
43809;SDS011;29440;48.208;11.162;2024-02-16T04:01:08;6.53;;;3.92;;
43809;SDS011;29440;48.208;11.162;2024-02-16T04:03:33;6.93;;;4.13;;
43809;SDS011;29440;48.208;11.162;2024-02-16T04:13:09;8.00;;;3.72;;
43809;SDS011;29440;48.208;11.162;2024-02-16T04:15:34;5.47;;;3.70;;
43809;SDS011;29440;48.208;11.162;2024-02-16T04:20:33;8.10;;;4.10;;
43809;SDS011;29440;48.208;11.162;2024-02-16T04:22:58;5.25;;;3.88;;
43809;SDS011;29440;48.208;11.162;2024-02-16T04:25:25;6.50;;;3.67;;
43809;SDS011;29440;48.208;11.162;2024-02-16T04:27:53;7.07;;;3.80;;
43809;SDS011;29440;48.208;11.162;2024-02-16T04:30:19;7.88;;;3.70;;
43809;SDS011;29440;48.208;11.162;2024-02-16T04:32:45;4.80;;;3.30;;
43809;SDS011;29440;48.208;11.162;2024-02-16T04:35:11;5.28;;;3.65;;
43809;SDS011;29440;48.208;11.162;2024-02-16T04:37:37;6.30;;;4.15;;
43809;SDS011;29440;48.208;11.162;2024-02-16T04:40:04;5.50;;;3.83;;
43809;SDS011;29440;48.208;11.162;2024-02-16T04:42:31;5.90;;;4.07;;
43809;SDS011;29440;48.208;11.162;2024-02-16T04:44:56;7.38;;;3.90;;
43809;SDS011;29440;48.208;11.162;2024-02-16T04:47:24;5.95;;;3.90;;
43809;SDS011;29440;48.208;11.162;2024-02-16T04:49:50;6.45;;;4.00;;
43809;SDS011;29440;48.208;11.162;2024-02-16T04:52:16;6.05;;;3.70;;
43809;SDS011;29440;48.208;11.162;2024-02-16T04:54:41;6.13;;;3.95;;
43809;SDS011;29440;48.208;11.162;2024-02-16T04:57:08;7.40;;;3.67;;
43809;SDS011;29440;48.208;11.162;2024-02-16T04:59:34;6.95;;;3.33;;
43809;SDS011;29440;48.208;11.162;2024-02-16T05:02:00;7.63;;;4.05;;
43809;SDS011;29440;48.208;11.162;2024-02-16T05:04:29;6.63;;;3.47;;
43809;SDS011;29440;48.208;11.162;2024-02-16T05:06:55;5.15;;;3.28;;
43809;SDS011;29440;48.208;11.162;2024-02-16T05:09:22;5.35;;;3.58;;
43809;SDS011;29440;48.208;11.162;2024-02-16T05:11:50;8.10;;;3.88;;
43809;SDS011;29440;48.208;11.162;2024-02-16T05:14:16;5.63;;;3.70;;
43809;SDS011;29440;48.208;11.162;2024-02-16T05:16:45;6.57;;;3.60;;
43809;SDS011;29440;48.208;11.162;2024-02-16T05:19:10;7.28;;;4.10;;
43809;SDS011;29440;48.208;11.162;2024-02-16T05:21:36;6.72;;;4.25;;
43809;SDS011;29440;48.208;11.162;2024-02-16T05:24:05;7.00;;;3.60;;
43809;SDS011;29440;48.208;11.162;2024-02-16T05:26:31;5.20;;;3.08;;
43809;SDS011;29440;48.208;11.162;2024-02-16T05:28:57;6.25;;;3.92;;
43809;SDS011;29440;48.208;11.162;2024-02-16T05:31:25;8.82;;;3.75;;
43809;SDS011;29440;48.208;11.162;2024-02-16T05:33:51;6.10;;;4.00;;
43809;SDS011;29440;48.208;11.162;2024-02-16T05:36:20;8.65;;;3.55;;
43809;SDS011;29440;48.208;11.162;2024-02-16T05:38:53;6.43;;;4.05;;
43809;SDS011;29440;48.208;11.162;2024-02-16T05:41:21;5.35;;;3.42;;
43809;SDS011;29440;48.208;11.162;2024-02-16T05:43:47;6.55;;;3.95;;
43809;SDS011;29440;48.208;11.162;2024-02-16T05:46:16;7.80;;;3.80;;
43809;SDS011;29440;48.208;11.162;2024-02-16T05:48:42;5.75;;;3.88;;
43809;SDS011;29440;48.208;11.162;2024-02-16T05:51:12;7.78;;;3.80;;
43809;SDS011;29440;48.208;11.162;2024-02-16T05:53:40;6.55;;;3.80;;
43809;SDS011;29440;48.208;11.162;2024-02-16T05:56:09;5.13;;;3.65;;
43809;SDS011;29440;48.208;11.162;2024-02-16T05:58:38;8.52;;;3.63;;
43809;SDS011;29440;48.208;11.162;2024-02-16T06:01:04;10.18;;;3.58;;
43809;SDS011;29440;48.208;11.162;2024-02-16T06:03:29;7.90;;;3.60;;
43809;SDS011;29440;48.208;11.162;2024-02-16T06:05:55;7.65;;;3.35;;
43809;SDS011;29440;48.208;11.162;2024-02-16T06:08:21;6.70;;;3.45;;
43809;SDS011;29440;48.208;11.162;2024-02-16T06:10:46;8.48;;;3.20;;
43809;SDS011;29440;48.208;11.162;2024-02-16T06:13:19;4.95;;;3.08;;
43809;SDS011;29440;48.208;11.162;2024-02-16T06:15:47;5.50;;;2.80;;
43809;SDS011;29440;48.208;11.162;2024-02-16T06:18:17;6.47;;;3.45;;
43809;SDS011;29440;48.208;11.162;2024-02-16T06:20:43;7.50;;;3.15;;
43809;SDS011;29440;48.208;11.162;2024-02-16T06:23:08;5.25;;;3.03;;
43809;SDS011;29440;48.208;11.162;2024-02-16T06:25:35;8.85;;;3.58;;
43809;SDS011;29440;48.208;11.162;2024-02-16T06:28:01;9.48;;;3.70;;
43809;SDS011;29440;48.208;11.162;2024-02-16T06:30:29;6.90;;;3.10;;
43809;SDS011;29440;48.208;11.162;2024-02-16T06:32:55;5.90;;;3.40;;
43809;SDS011;29440;48.208;11.162;2024-02-16T06:35:22;7.35;;;2.97;;
43809;SDS011;29440;48.208;11.162;2024-02-16T06:37:48;5.57;;;3.83;;
43809;SDS011;29440;48.208;11.162;2024-02-16T06:40:14;10.68;;;3.95;;
43809;SDS011;29440;48.208;11.162;2024-02-16T06:42:39;4.57;;;3.42;;
43809;SDS011;29440;48.208;11.162;2024-02-16T06:45:05;5.78;;;3.30;;
43809;SDS011;29440;48.208;11.162;2024-02-16T06:47:34;6.93;;;3.10;;
43809;SDS011;29440;48.208;11.162;2024-02-16T06:49:59;8.30;;;4.40;;
43809;SDS011;29440;48.208;11.162;2024-02-16T06:52:25;6.25;;;3.17;;
43809;SDS011;29440;48.208;11.162;2024-02-16T06:54:51;5.13;;;3.38;;
43809;SDS011;29440;48.208;11.162;2024-02-16T06:57:18;6.53;;;3.40;;
43809;SDS011;29440;48.208;11.162;2024-02-16T06:59:44;6.75;;;3.70;;
43809;SDS011;29440;48.208;11.162;2024-02-16T07:02:10;7.80;;;3.20;;
43809;SDS011;29440;48.208;11.162;2024-02-16T07:04:39;6.43;;;3.10;;
43809;SDS011;29440;48.208;11.162;2024-02-16T07:07:05;6.10;;;3.38;;
43809;SDS011;29440;48.208;11.162;2024-02-16T07:09:31;11.02;;;3.45;;
43809;SDS011;29440;48.208;11.162;2024-02-16T07:11:57;6.55;;;2.90;;
43809;SDS011;29440;48.208;11.162;2024-02-16T07:14:23;10.10;;;3.85;;
43809;SDS011;29440;48.208;11.162;2024-02-16T07:16:49;7.47;;;3.05;;
43809;SDS011;29440;48.208;11.162;2024-02-16T07:19:15;8.88;;;3.33;;
43809;SDS011;29440;48.208;11.162;2024-02-16T07:21:42;6.63;;;3.03;;
43809;SDS011;29440;48.208;11.162;2024-02-16T07:24:10;6.18;;;3.45;;
43809;SDS011;29440;48.208;11.162;2024-02-16T07:26:35;7.85;;;3.75;;
43809;SDS011;29440;48.208;11.162;2024-02-16T07:29:02;8.10;;;4.22;;
43809;SDS011;29440;48.208;11.162;2024-02-16T07:31:34;5.90;;;3.67;;
43809;SDS011;29440;48.208;11.162;2024-02-16T07:34:00;6.80;;;3.10;;
43809;SDS011;29440;48.208;11.162;2024-02-16T07:36:26;6.72;;;2.72;;
43809;SDS011;29440;48.208;11.162;2024-02-16T07:38:52;8.88;;;2.92;;
43809;SDS011;29440;48.208;11.162;2024-02-16T07:41:18;4.25;;;3.10;;
43809;SDS011;29440;48.208;11.162;2024-02-16T07:43:43;5.95;;;2.80;;
43809;SDS011;29440;48.208;11.162;2024-02-16T07:46:09;8.60;;;3.35;;
43809;SDS011;29440;48.208;11.162;2024-02-16T07:48:35;6.20;;;3.38;;
43809;SDS011;29440;48.208;11.162;2024-02-16T07:51:00;11.20;;;5.75;;
43809;SDS011;29440;48.208;11.162;2024-02-16T07:53:28;11.57;;;6.50;;
43809;SDS011;29440;48.208;11.162;2024-02-16T07:55:58;9.88;;;5.70;;
43809;SDS011;29440;48.208;11.162;2024-02-16T07:58:24;8.15;;;5.22;;
43809;SDS011;29440;48.208;11.162;2024-02-16T08:00:50;11.65;;;4.20;;
43809;SDS011;29440;48.208;11.162;2024-02-16T08:03:19;11.98;;;4.38;;
43809;SDS011;29440;48.208;11.162;2024-02-16T08:05:45;11.15;;;4.25;;
43809;SDS011;29440;48.208;11.162;2024-02-16T08:08:14;5.63;;;3.00;;
43809;SDS011;29440;48.208;11.162;2024-02-16T08:10:40;6.32;;;2.80;;
43809;SDS011;29440;48.208;11.162;2024-02-16T08:13:06;4.70;;;2.55;;
43809;SDS011;29440;48.208;11.162;2024-02-16T08:15:31;6.95;;;3.28;;
43809;SDS011;29440;48.208;11.162;2024-02-16T08:17:57;6.15;;;2.47;;
43809;SDS011;29440;48.208;11.162;2024-02-16T08:20:23;3.92;;;2.53;;
43809;SDS011;29440;48.208;11.162;2024-02-16T08:22:48;6.57;;;2.33;;
43809;SDS011;29440;48.208;11.162;2024-02-16T08:25:14;5.45;;;2.50;;
43809;SDS011;29440;48.208;11.162;2024-02-16T08:27:40;5.32;;;2.78;;
43809;SDS011;29440;48.208;11.162;2024-02-16T08:30:06;4.68;;;2.40;;
43809;SDS011;29440;48.208;11.162;2024-02-16T08:32:34;4.15;;;2.45;;
43809;SDS011;29440;48.208;11.162;2024-02-16T08:34:59;3.33;;;2.50;;
43809;SDS011;29440;48.208;11.162;2024-02-16T08:37:25;6.72;;;3.00;;
43809;SDS011;29440;48.208;11.162;2024-02-16T08:39:52;5.25;;;3.35;;
43809;SDS011;29440;48.208;11.162;2024-02-16T08:42:19;5.10;;;2.75;;
43809;SDS011;29440;48.208;11.162;2024-02-16T08:44:46;4.72;;;3.13;;
43809;SDS011;29440;48.208;11.162;2024-02-16T08:47:14;5.50;;;2.20;;
43809;SDS011;29440;48.208;11.162;2024-02-16T08:49:41;6.97;;;2.72;;
43809;SDS011;29440;48.208;11.162;2024-02-16T08:52:07;6.03;;;3.30;;
43809;SDS011;29440;48.208;11.162;2024-02-16T08:54:33;4.10;;;2.03;;
43809;SDS011;29440;48.208;11.162;2024-02-16T08:56:59;3.45;;;2.00;;
43809;SDS011;29440;48.208;11.162;2024-02-16T08:59:24;4.32;;;1.77;;
43809;SDS011;29440;48.208;11.162;2024-02-16T09:01:51;5.70;;;1.98;;
43809;SDS011;29440;48.208;11.162;2024-02-16T09:04:17;6.20;;;1.50;;
43809;SDS011;29440;48.208;11.162;2024-02-16T09:06:44;2.47;;;1.35;;
43809;SDS011;29440;48.208;11.162;2024-02-16T09:09:09;1.88;;;1.20;;
43809;SDS011;29440;48.208;11.162;2024-02-16T09:11:36;5.25;;;1.20;;
43809;SDS011;29440;48.208;11.162;2024-02-16T09:14:01;2.95;;;1.25;;
43809;SDS011;29440;48.208;11.162;2024-02-16T09:16:27;2.92;;;1.48;;
43809;SDS011;29440;48.208;11.162;2024-02-16T09:18:53;4.53;;;1.50;;
43809;SDS011;29440;48.208;11.162;2024-02-16T09:21:19;4.65;;;1.50;;
43809;SDS011;29440;48.208;11.162;2024-02-16T09:23:44;3.70;;;1.42;;
43809;SDS011;29440;48.208;11.162;2024-02-16T09:26:10;7.25;;;3.47;;
43809;SDS011;29440;48.208;11.162;2024-02-16T09:28:40;10.32;;;7.95;;
43809;SDS011;29440;48.208;11.162;2024-02-16T09:31:07;2.50;;;1.90;;
43809;SDS011;29440;48.208;11.162;2024-02-16T09:33:33;3.22;;;1.65;;
43809;SDS011;29440;48.208;11.162;2024-02-16T09:36:02;3.15;;;1.65;;
43809;SDS011;29440;48.208;11.162;2024-02-16T09:38:29;8.93;;;1.77;;
43809;SDS011;29440;48.208;11.162;2024-02-16T09:40:55;5.03;;;1.60;;
43809;SDS011;29440;48.208;11.162;2024-02-16T09:43:30;7.65;;;1.60;;
43809;SDS011;29440;48.208;11.162;2024-02-16T09:45:56;5.35;;;1.88;;
43809;SDS011;29440;48.208;11.162;2024-02-16T09:48:25;3.85;;;1.58;;
43809;SDS011;29440;48.208;11.162;2024-02-16T09:50:55;7.03;;;1.83;;
43809;SDS011;29440;48.208;11.162;2024-02-16T09:53:24;2.28;;;1.45;;
43809;SDS011;29440;48.208;11.162;2024-02-16T09:55:51;3.03;;;1.35;;
43809;SDS011;29440;48.208;11.162;2024-02-16T09:58:18;3.05;;;1.40;;
43809;SDS011;29440;48.208;11.162;2024-02-16T10:00:54;6.95;;;1.73;;
43809;SDS011;29440;48.208;11.162;2024-02-16T10:03:24;2.35;;;1.20;;
43809;SDS011;29440;48.208;11.162;2024-02-16T10:05:51;2.85;;;0.90;;
43809;SDS011;29440;48.208;11.162;2024-02-16T10:08:20;3.50;;;1.00;;
43809;SDS011;29440;48.208;11.162;2024-02-16T10:10:46;1.90;;;0.90;;
43809;SDS011;29440;48.208;11.162;2024-02-16T10:13:15;3.80;;;1.05;;
43809;SDS011;29440;48.208;11.162;2024-02-16T10:15:40;1.70;;;0.80;;
43809;SDS011;29440;48.208;11.162;2024-02-16T10:18:06;4.90;;;0.90;;
43809;SDS011;29440;48.208;11.162;2024-02-16T10:20:33;1.85;;;1.13;;
43809;SDS011;29440;48.208;11.162;2024-02-16T10:23:07;7.47;;;1.02;;
43809;SDS011;29440;48.208;11.162;2024-02-16T10:25:34;1.80;;;1.00;;
43809;SDS011;29440;48.208;11.162;2024-02-16T10:28:03;1.95;;;0.85;;
43809;SDS011;29440;48.208;11.162;2024-02-16T10:30:34;3.25;;;0.85;;
43809;SDS011;29440;48.208;11.162;2024-02-16T10:33:01;3.28;;;0.93;;
43809;SDS011;29440;48.208;11.162;2024-02-16T10:35:29;5.68;;;1.08;;
43809;SDS011;29440;48.208;11.162;2024-02-16T10:37:55;2.67;;;1.00;;
43809;SDS011;29440;48.208;11.162;2024-02-16T10:40:23;3.67;;;1.00;;
43809;SDS011;29440;48.208;11.162;2024-02-16T10:42:49;2.63;;;0.70;;
43809;SDS011;29440;48.208;11.162;2024-02-16T10:45:18;4.13;;;0.80;;
43809;SDS011;29440;48.208;11.162;2024-02-16T10:47:45;1.52;;;0.70;;
43809;SDS011;29440;48.208;11.162;2024-02-16T10:50:12;2.10;;;0.65;;
43809;SDS011;29440;48.208;11.162;2024-02-16T10:52:39;1.70;;;0.80;;
43809;SDS011;29440;48.208;11.162;2024-02-16T10:55:08;3.83;;;0.63;;
43809;SDS011;29440;48.208;11.162;2024-02-16T10:57:36;2.25;;;0.98;;
43809;SDS011;29440;48.208;11.162;2024-02-16T11:00:08;1.77;;;0.90;;
43809;SDS011;29440;48.208;11.162;2024-02-16T11:02:53;2.65;;;0.95;;
43809;SDS011;29440;48.208;11.162;2024-02-16T11:05:34;3.03;;;0.80;;
43809;SDS011;29440;48.208;11.162;2024-02-16T11:08:04;3.45;;;1.20;;
43809;SDS011;29440;48.208;11.162;2024-02-16T11:10:30;2.00;;;0.88;;
43809;SDS011;29440;48.208;11.162;2024-02-16T11:13:03;2.05;;;0.98;;
43809;SDS011;29440;48.208;11.162;2024-02-16T11:15:33;1.83;;;1.00;;
43809;SDS011;29440;48.208;11.162;2024-02-16T11:18:01;4.68;;;1.15;;
43809;SDS011;29440;48.208;11.162;2024-02-16T11:20:27;2.47;;;1.05;;
43809;SDS011;29440;48.208;11.162;2024-02-16T11:23:04;3.83;;;1.05;;
43809;SDS011;29440;48.208;11.162;2024-02-16T11:25:36;2.95;;;1.10;;
43809;SDS011;29440;48.208;11.162;2024-02-16T11:28:03;3.30;;;1.08;;
43809;SDS011;29440;48.208;11.162;2024-02-16T11:30:35;2.22;;;1.10;;
43809;SDS011;29440;48.208;11.162;2024-02-16T11:33:12;2.10;;;1.00;;
43809;SDS011;29440;48.208;11.162;2024-02-16T11:35:39;2.35;;;1.10;;
43809;SDS011;29440;48.208;11.162;2024-02-16T11:38:05;2.50;;;1.00;;
43809;SDS011;29440;48.208;11.162;2024-02-16T11:40:32;2.63;;;1.10;;
43809;SDS011;29440;48.208;11.162;2024-02-16T11:43:01;3.00;;;1.23;;
43809;SDS011;29440;48.208;11.162;2024-02-16T11:45:27;3.20;;;1.10;;
43809;SDS011;29440;48.208;11.162;2024-02-16T11:48:06;2.97;;;1.20;;
43809;SDS011;29440;48.208;11.162;2024-02-16T11:50:34;1.65;;;0.85;;
43809;SDS011;29440;48.208;11.162;2024-02-16T11:53:01;4.43;;;1.20;;
43809;SDS011;29440;48.208;11.162;2024-02-16T11:55:27;2.67;;;1.13;;
43809;SDS011;29440;48.208;11.162;2024-02-16T11:57:52;6.82;;;1.60;;
43809;SDS011;29440;48.208;11.162;2024-02-16T12:00:19;3.38;;;1.42;;
43809;SDS011;29440;48.208;11.162;2024-02-16T12:02:45;2.38;;;1.20;;
43809;SDS011;29440;48.208;11.162;2024-02-16T12:05:13;2.85;;;1.20;;
43809;SDS011;29440;48.208;11.162;2024-02-16T12:07:39;2.58;;;1.23;;
43809;SDS011;29440;48.208;11.162;2024-02-16T12:10:05;5.72;;;1.10;;
43809;SDS011;29440;48.208;11.162;2024-02-16T12:12:32;2.85;;;1.48;;
43809;SDS011;29440;48.208;11.162;2024-02-16T12:14:58;4.55;;;1.42;;
43809;SDS011;29440;48.208;11.162;2024-02-16T12:17:24;3.72;;;1.50;;
43809;SDS011;29440;48.208;11.162;2024-02-16T12:19:51;2.35;;;1.35;;
43809;SDS011;29440;48.208;11.162;2024-02-16T12:22:20;2.42;;;1.30;;
43809;SDS011;29440;48.208;11.162;2024-02-16T12:24:46;2.85;;;1.40;;
43809;SDS011;29440;48.208;11.162;2024-02-16T12:27:13;2.65;;;1.20;;
43809;SDS011;29440;48.208;11.162;2024-02-16T12:29:39;2.03;;;1.10;;
43809;SDS011;29440;48.208;11.162;2024-02-16T12:32:05;3.47;;;1.38;;
43809;SDS011;29440;48.208;11.162;2024-02-16T12:34:31;3.90;;;1.42;;
43809;SDS011;29440;48.208;11.162;2024-02-16T12:36:58;2.30;;;1.00;;
43809;SDS011;29440;48.208;11.162;2024-02-16T12:39:24;3.35;;;1.40;;
43809;SDS011;29440;48.208;11.162;2024-02-16T12:41:50;3.13;;;1.33;;
43809;SDS011;29440;48.208;11.162;2024-02-16T12:44:16;6.30;;;1.30;;
43809;SDS011;29440;48.208;11.162;2024-02-16T12:46:41;4.32;;;1.23;;
43809;SDS011;29440;48.208;11.162;2024-02-16T12:49:08;4.65;;;1.45;;
43809;SDS011;29440;48.208;11.162;2024-02-16T12:51:34;2.10;;;1.02;;
43809;SDS011;29440;48.208;11.162;2024-02-16T12:54:00;2.70;;;1.00;;
43809;SDS011;29440;48.208;11.162;2024-02-16T12:56:29;3.65;;;1.05;;
43809;SDS011;29440;48.208;11.162;2024-02-16T12:58:54;3.20;;;1.30;;
43809;SDS011;29440;48.208;11.162;2024-02-16T13:01:21;3.00;;;1.20;;
43809;SDS011;29440;48.208;11.162;2024-02-16T13:03:47;4.75;;;1.30;;
43809;SDS011;29440;48.208;11.162;2024-02-16T13:06:13;2.58;;;1.33;;
43809;SDS011;29440;48.208;11.162;2024-02-16T13:08:39;2.30;;;1.13;;
43809;SDS011;29440;48.208;11.162;2024-02-16T13:11:05;2.92;;;1.08;;
43809;SDS011;29440;48.208;11.162;2024-02-16T13:13:30;4.15;;;1.25;;
43809;SDS011;29440;48.208;11.162;2024-02-16T13:15:57;2.95;;;1.00;;
43809;SDS011;29440;48.208;11.162;2024-02-16T13:18:24;2.97;;;1.15;;
43809;SDS011;29440;48.208;11.162;2024-02-16T13:20:49;2.38;;;1.20;;
43809;SDS011;29440;48.208;11.162;2024-02-16T13:23:15;2.10;;;1.23;;
43809;SDS011;29440;48.208;11.162;2024-02-16T13:25:40;2.25;;;1.20;;
43809;SDS011;29440;48.208;11.162;2024-02-16T13:28:06;3.53;;;1.17;;
43809;SDS011;29440;48.208;11.162;2024-02-16T13:30:32;2.63;;;1.10;;
43809;SDS011;29440;48.208;11.162;2024-02-16T13:32:57;3.33;;;1.00;;
43809;SDS011;29440;48.208;11.162;2024-02-16T13:35:23;2.90;;;1.15;;
43809;SDS011;29440;48.208;11.162;2024-02-16T13:37:50;3.85;;;1.33;;
43809;SDS011;29440;48.208;11.162;2024-02-16T13:40:15;2.35;;;1.52;;
43809;SDS011;29440;48.208;11.162;2024-02-16T13:42:42;3.00;;;1.13;;
43809;SDS011;29440;48.208;11.162;2024-02-16T13:45:08;4.47;;;1.35;;
43809;SDS011;29440;48.208;11.162;2024-02-16T13:47:34;6.57;;;1.50;;
43809;SDS011;29440;48.208;11.162;2024-02-16T13:50:00;3.05;;;1.60;;
43809;SDS011;29440;48.208;11.162;2024-02-16T13:52:26;3.45;;;1.48;;
43809;SDS011;29440;48.208;11.162;2024-02-16T13:54:52;3.22;;;1.35;;
43809;SDS011;29440;48.208;11.162;2024-02-16T13:57:18;5.00;;;1.50;;
43809;SDS011;29440;48.208;11.162;2024-02-16T13:59:44;3.45;;;1.38;;
43809;SDS011;29440;48.208;11.162;2024-02-16T14:02:10;3.67;;;1.38;;
43809;SDS011;29440;48.208;11.162;2024-02-16T14:04:37;3.90;;;1.77;;
43809;SDS011;29440;48.208;11.162;2024-02-16T14:07:03;3.58;;;1.38;;
43809;SDS011;29440;48.208;11.162;2024-02-16T14:09:29;4.82;;;1.77;;
43809;SDS011;29440;48.208;11.162;2024-02-16T14:11:54;4.43;;;1.40;;
43809;SDS011;29440;48.208;11.162;2024-02-16T14:14:23;3.42;;;1.25;;
43809;SDS011;29440;48.208;11.162;2024-02-16T14:16:49;5.68;;;1.55;;
43809;SDS011;29440;48.208;11.162;2024-02-16T14:19:15;3.85;;;1.48;;
43809;SDS011;29440;48.208;11.162;2024-02-16T14:21:42;5.93;;;1.65;;
43809;SDS011;29440;48.208;11.162;2024-02-16T14:24:08;3.78;;;1.45;;
43809;SDS011;29440;48.208;11.162;2024-02-16T14:26:35;4.88;;;1.10;;
43809;SDS011;29440;48.208;11.162;2024-02-16T14:29:01;4.13;;;1.40;;
43809;SDS011;29440;48.208;11.162;2024-02-16T14:31:27;8.13;;;1.83;;
43809;SDS011;29440;48.208;11.162;2024-02-16T14:33:53;6.00;;;1.20;;
43809;SDS011;29440;48.208;11.162;2024-02-16T14:36:19;6.25;;;1.90;;
43809;SDS011;29440;48.208;11.162;2024-02-16T14:38:45;3.72;;;1.25;;
43809;SDS011;29440;48.208;11.162;2024-02-16T14:41:10;9.35;;;1.70;;
43809;SDS011;29440;48.208;11.162;2024-02-16T14:43:36;4.65;;;1.33;;
43809;SDS011;29440;48.208;11.162;2024-02-16T14:46:02;7.03;;;1.60;;
43809;SDS011;29440;48.208;11.162;2024-02-16T14:48:31;4.65;;;1.48;;
43809;SDS011;29440;48.208;11.162;2024-02-16T14:50:56;3.25;;;1.35;;
43809;SDS011;29440;48.208;11.162;2024-02-16T14:53:22;4.82;;;1.30;;